Terminal Aerodrome Forecast
Issued by NWS

Home | Current Version | Previous Version | Text Only | Print | Product List | Glossary On
Versions: 1 2 3 4 5 6 7 8 9 10 11 12 13
872
FTUS44 KMAF 221907 AAA
TAFCNM
TAF AMD
KCNM 221907Z 2219/2318 14011G17KT P6SM SCT060 SCT250
     FM230200 15013G23KT P6SM OVC200
     FM231000 16008G18KT P6SM OVC009=

USA.gov is the U.S. government's official web portal to all federal, state and local government web resources and services.